sensor_id;sensor_type;location;lat;lon;timestamp;temperature;humidity
10030;DHT22;5055;52.054;8.524;2022-12-29T00:00:01;10.50;97.00
10030;DHT22;5055;52.054;8.524;2022-12-29T00:02:31;10.50;97.00
10030;DHT22;5055;52.054;8.524;2022-12-29T00:05:00;10.50;97.00
10030;DHT22;5055;52.054;8.524;2022-12-29T00:07:30;10.50;97.00
10030;DHT22;5055;52.054;8.524;2022-12-29T00:09:59;10.60;97.00
10030;DHT22;5055;52.054;8.524;2022-12-29T00:12:28;10.60;97.00
10030;DHT22;5055;52.054;8.524;2022-12-29T00:15:16;10.60;97.00
10030;DHT22;5055;52.054;8.524;2022-12-29T00:18:03;10.50;97.00
10030;DHT22;5055;52.054;8.524;2022-12-29T00:20:33;10.60;97.00
10030;DHT22;5055;52.054;8.524;2022-12-29T00:23:21;10.60;97.00
10030;DHT22;5055;52.054;8.524;2022-12-29T00:26:13;10.60;97.00
10030;DHT22;5055;52.054;8.524;2022-12-29T00:28:59;10.60;97.00
10030;DHT22;5055;52.054;8.524;2022-12-29T00:31:45;10.50;97.00
10030;DHT22;5055;52.054;8.524;2022-12-29T00:34:34;10.60;97.00
10030;DHT22;5055;52.054;8.524;2022-12-29T00:37:20;10.60;97.00
10030;DHT22;5055;52.054;8.524;2022-12-29T00:40:11;10.60;97.00
10030;DHT22;5055;52.054;8.524;2022-12-29T00:42:56;10.60;97.00
10030;DHT22;5055;52.054;8.524;2022-12-29T00:45:42;10.60;97.00
10030;DHT22;5055;52.054;8.524;2022-12-29T00:48:11;10.60;97.00
10030;DHT22;5055;52.054;8.524;2022-12-29T00:50:39;10.60;97.00
10030;DHT22;5055;52.054;8.524;2022-12-29T00:53:07;10.60;97.00
10030;DHT22;5055;52.054;8.524;2022-12-29T00:55:38;10.60;97.00
10030;DHT22;5055;52.054;8.524;2022-12-29T00:58:06;10.60;97.00
10030;DHT22;5055;52.054;8.524;2022-12-29T01:00:35;10.60;97.00
10030;DHT22;5055;52.054;8.524;2022-12-29T01:03:03;10.60;97.00
10030;DHT22;5055;52.054;8.524;2022-12-29T01:05:35;10.60;97.00
10030;DHT22;5055;52.054;8.524;2022-12-29T01:08:04;10.60;97.00
10030;DHT22;5055;52.054;8.524;2022-12-29T01:10:33;10.60;97.00
10030;DHT22;5055;52.054;8.524;2022-12-29T01:13:02;10.60;97.00
10030;DHT22;5055;52.054;8.524;2022-12-29T01:15:31;10.60;97.00
10030;DHT22;5055;52.054;8.524;2022-12-29T01:18:00;10.60;97.00
10030;DHT22;5055;52.054;8.524;2022-12-29T01:20:29;10.60;97.00
10030;DHT22;5055;52.054;8.524;2022-12-29T01:22:57;10.50;97.00
10030;DHT22;5055;52.054;8.524;2022-12-29T01:25:26;10.50;97.00
10030;DHT22;5055;52.054;8.524;2022-12-29T01:27:54;10.60;97.00
10030;DHT22;5055;52.054;8.524;2022-12-29T01:30:24;10.60;97.00
10030;DHT22;5055;52.054;8.524;2022-12-29T01:32:53;10.60;97.00
10030;DHT22;5055;52.054;8.524;2022-12-29T01:35:21;10.60;97.00
10030;DHT22;5055;52.054;8.524;2022-12-29T01:37:49;10.60;97.00
10030;DHT22;5055;52.054;8.524;2022-12-29T01:40:18;10.50;97.00
10030;DHT22;5055;52.054;8.524;2022-12-29T01:42:47;10.50;97.00
10030;DHT22;5055;52.054;8.524;2022-12-29T01:45:17;10.50;97.00
10030;DHT22;5055;52.054;8.524;2022-12-29T01:47:50;10.50;97.00
10030;DHT22;5055;52.054;8.524;2022-12-29T01:50:23;10.50;97.00
10030;DHT22;5055;52.054;8.524;2022-12-29T01:52:57;10.50;97.00
10030;DHT22;5055;52.054;8.524;2022-12-29T01:55:30;10.60;97.00
10030;DHT22;5055;52.054;8.524;2022-12-29T01:58:03;10.60;97.00
10030;DHT22;5055;52.054;8.524;2022-12-29T02:00:33;10.60;97.00
10030;DHT22;5055;52.054;8.524;2022-12-29T02:03:05;10.60;97.00
10030;DHT22;5055;52.054;8.524;2022-12-29T02:05:38;10.60;97.00
10030;DHT22;5055;52.054;8.524;2022-12-29T02:08:09;10.60;97.00
10030;DHT22;5055;52.054;8.524;2022-12-29T02:10:39;10.70;97.00
10030;DHT22;5055;52.054;8.524;2022-12-29T02:13:08;10.70;97.00
10030;DHT22;5055;52.054;8.524;2022-12-29T02:15:56;10.60;97.00
10030;DHT22;5055;52.054;8.524;2022-12-29T02:18:37;10.50;97.00
10030;DHT22;5055;52.054;8.524;2022-12-29T02:21:39;10.50;97.00
10030;DHT22;5055;52.054;8.524;2022-12-29T02:24:35;10.40;97.00
10030;DHT22;5055;52.054;8.524;2022-12-29T02:27:33;10.40;97.00
10030;DHT22;5055;52.054;8.524;2022-12-29T02:30:09;10.30;97.00
10030;DHT22;5055;52.054;8.524;2022-12-29T02:32:49;10.30;97.00
10030;DHT22;5055;52.054;8.524;2022-12-29T02:35:27;10.30;97.00
10030;DHT22;5055;52.054;8.524;2022-12-29T02:38:08;10.30;97.00
10030;DHT22;5055;52.054;8.524;2022-12-29T02:40:42;10.30;97.00
10030;DHT22;5055;52.054;8.524;2022-12-29T02:43:20;10.40;97.00
10030;DHT22;5055;52.054;8.524;2022-12-29T02:45:54;10.50;97.00
10030;DHT22;5055;52.054;8.524;2022-12-29T02:48:29;10.50;97.00
10030;DHT22;5055;52.054;8.524;2022-12-29T02:51:02;10.50;97.00
10030;DHT22;5055;52.054;8.524;2022-12-29T02:53:33;10.60;97.00
10030;DHT22;5055;52.054;8.524;2022-12-29T02:56:20;10.60;97.00
10030;DHT22;5055;52.054;8.524;2022-12-29T02:58:48;10.60;97.00
10030;DHT22;5055;52.054;8.524;2022-12-29T03:01:24;10.60;97.00
10030;DHT22;5055;52.054;8.524;2022-12-29T03:04:08;10.70;97.00
10030;DHT22;5055;52.054;8.524;2022-12-29T03:06:46;10.70;97.00
10030;DHT22;5055;52.054;8.524;2022-12-29T03:09:28;10.70;97.00
10030;DHT22;5055;52.054;8.524;2022-12-29T03:12:07;10.80;97.00
10030;DHT22;5055;52.054;8.524;2022-12-29T03:14:49;10.80;97.00
10030;DHT22;5055;52.054;8.524;2022-12-29T03:17:45;10.80;97.00
10030;DHT22;5055;52.054;8.524;2022-12-29T03:20:19;10.90;97.00
10030;DHT22;5055;52.054;8.524;2022-12-29T03:22:49;10.90;97.00
10030;DHT22;5055;52.054;8.524;2022-12-29T03:25:23;11.00;97.00
10030;DHT22;5055;52.054;8.524;2022-12-29T03:27:56;11.00;97.00
10030;DHT22;5055;52.054;8.524;2022-12-29T03:30:26;11.10;97.00
10030;DHT22;5055;52.054;8.524;2022-12-29T03:32:59;11.10;97.00
10030;DHT22;5055;52.054;8.524;2022-12-29T03:35:33;11.20;97.00
10030;DHT22;5055;52.054;8.524;2022-12-29T03:38:08;11.20;97.00
10030;DHT22;5055;52.054;8.524;2022-12-29T03:40:42;11.30;97.00
10030;DHT22;5055;52.054;8.524;2022-12-29T03:43:12;11.30;97.00
10030;DHT22;5055;52.054;8.524;2022-12-29T03:45:41;11.30;97.00
10030;DHT22;5055;52.054;8.524;2022-12-29T03:48:10;11.30;97.00
10030;DHT22;5055;52.054;8.524;2022-12-29T03:50:40;11.30;97.00
10030;DHT22;5055;52.054;8.524;2022-12-29T03:53:08;11.30;97.00
10030;DHT22;5055;52.054;8.524;2022-12-29T03:55:56;11.30;97.00
10030;DHT22;5055;52.054;8.524;2022-12-29T03:58:24;11.40;97.00
10030;DHT22;5055;52.054;8.524;2022-12-29T04:00:53;11.40;97.00
10030;DHT22;5055;52.054;8.524;2022-12-29T04:03:22;11.40;97.00
10030;DHT22;5055;52.054;8.524;2022-12-29T04:05:51;11.40;97.00
10030;DHT22;5055;52.054;8.524;2022-12-29T04:08:23;11.40;97.00
10030;DHT22;5055;52.054;8.524;2022-12-29T04:10:52;11.40;97.00
10030;DHT22;5055;52.054;8.524;2022-12-29T04:13:23;11.40;97.00
10030;DHT22;5055;52.054;8.524;2022-12-29T04:15:51;11.40;97.00
10030;DHT22;5055;52.054;8.524;2022-12-29T04:18:20;11.50;97.00
10030;DHT22;5055;52.054;8.524;2022-12-29T04:20:53;11.50;97.00
10030;DHT22;5055;52.054;8.524;2022-12-29T04:23:32;11.60;97.00
10030;DHT22;5055;52.054;8.524;2022-12-29T04:26:01;11.60;97.00
10030;DHT22;5055;52.054;8.524;2022-12-29T04:28:30;11.60;97.00
10030;DHT22;5055;52.054;8.524;2022-12-29T04:30:59;11.60;97.00
10030;DHT22;5055;52.054;8.524;2022-12-29T04:33:27;11.70;97.00
10030;DHT22;5055;52.054;8.524;2022-12-29T04:35:57;11.70;97.00
10030;DHT22;5055;52.054;8.524;2022-12-29T04:38:26;11.70;97.00
10030;DHT22;5055;52.054;8.524;2022-12-29T04:40:54;11.70;97.00
10030;DHT22;5055;52.054;8.524;2022-12-29T04:43:23;11.60;97.00
10030;DHT22;5055;52.054;8.524;2022-12-29T04:45:51;11.60;97.00
10030;DHT22;5055;52.054;8.524;2022-12-29T04:48:20;11.40;97.00
10030;DHT22;5055;52.054;8.524;2022-12-29T04:50:49;11.30;97.00
10030;DHT22;5055;52.054;8.524;2022-12-29T04:53:19;11.20;97.00
10030;DHT22;5055;52.054;8.524;2022-12-29T04:55:49;11.20;97.00
10030;DHT22;5055;52.054;8.524;2022-12-29T04:58:18;11.20;97.00
10030;DHT22;5055;52.054;8.524;2022-12-29T05:00:50;11.20;97.00
10030;DHT22;5055;52.054;8.524;2022-12-29T05:03:18;11.10;97.00
10030;DHT22;5055;52.054;8.524;2022-12-29T05:05:47;11.10;97.00
10030;DHT22;5055;52.054;8.524;2022-12-29T05:08:15;11.10;97.00
10030;DHT22;5055;52.054;8.524;2022-12-29T05:10:51;11.10;97.00
10030;DHT22;5055;52.054;8.524;2022-12-29T05:13:20;11.10;97.00
10030;DHT22;5055;52.054;8.524;2022-12-29T05:15:49;11.10;97.00
10030;DHT22;5055;52.054;8.524;2022-12-29T05:18:19;11.00;97.00
10030;DHT22;5055;52.054;8.524;2022-12-29T05:20:47;11.00;97.00
10030;DHT22;5055;52.054;8.524;2022-12-29T05:23:16;11.00;97.00
10030;DHT22;5055;52.054;8.524;2022-12-29T05:25:44;11.00;97.00
10030;DHT22;5055;52.054;8.524;2022-12-29T05:28:14;11.00;97.00
10030;DHT22;5055;52.054;8.524;2022-12-29T05:30:46;11.00;97.00
10030;DHT22;5055;52.054;8.524;2022-12-29T05:33:16;11.00;97.00
10030;DHT22;5055;52.054;8.524;2022-12-29T05:35:44;11.10;97.00
10030;DHT22;5055;52.054;8.524;2022-12-29T05:38:13;11.10;97.00
10030;DHT22;5055;52.054;8.524;2022-12-29T05:40:43;11.10;97.00
10030;DHT22;5055;52.054;8.524;2022-12-29T05:43:11;11.10;97.00
10030;DHT22;5055;52.054;8.524;2022-12-29T05:45:41;11.10;97.00
10030;DHT22;5055;52.054;8.524;2022-12-29T05:48:10;11.20;97.00
10030;DHT22;5055;52.054;8.524;2022-12-29T05:50:38;11.20;97.00
10030;DHT22;5055;52.054;8.524;2022-12-29T05:53:07;11.30;97.00
10030;DHT22;5055;52.054;8.524;2022-12-29T05:55:35;11.30;97.00
10030;DHT22;5055;52.054;8.524;2022-12-29T05:58:09;11.30;97.00
10030;DHT22;5055;52.054;8.524;2022-12-29T06:00:38;11.30;97.00
10030;DHT22;5055;52.054;8.524;2022-12-29T06:03:08;11.30;97.00
10030;DHT22;5055;52.054;8.524;2022-12-29T06:05:36;11.30;97.00
10030;DHT22;5055;52.054;8.524;2022-12-29T06:08:05;11.40;97.00
10030;DHT22;5055;52.054;8.524;2022-12-29T06:10:33;11.40;97.00
10030;DHT22;5055;52.054;8.524;2022-12-29T06:13:02;11.40;97.00
10030;DHT22;5055;52.054;8.524;2022-12-29T06:15:33;11.50;97.00
10030;DHT22;5055;52.054;8.524;2022-12-29T06:18:02;11.50;97.00
10030;DHT22;5055;52.054;8.524;2022-12-29T06:20:38;11.50;97.00
10030;DHT22;5055;52.054;8.524;2022-12-29T06:23:06;11.60;97.00
10030;DHT22;5055;52.054;8.524;2022-12-29T06:25:35;11.10;97.00
10030;DHT22;5055;52.054;8.524;2022-12-29T06:28:03;10.70;97.00
10030;DHT22;5055;52.054;8.524;2022-12-29T06:30:32;10.30;97.00
10030;DHT22;5055;52.054;8.524;2022-12-29T06:33:00;10.10;97.00
10030;DHT22;5055;52.054;8.524;2022-12-29T06:35:29;10.00;97.00
10030;DHT22;5055;52.054;8.524;2022-12-29T06:37:58;9.90;97.00
10030;DHT22;5055;52.054;8.524;2022-12-29T06:40:27;9.80;97.00
10030;DHT22;5055;52.054;8.524;2022-12-29T06:42:55;9.80;97.00
10030;DHT22;5055;52.054;8.524;2022-12-29T06:45:24;9.80;97.00
10030;DHT22;5055;52.054;8.524;2022-12-29T06:47:52;9.70;97.00
10030;DHT22;5055;52.054;8.524;2022-12-29T06:50:20;9.70;97.00
10030;DHT22;5055;52.054;8.524;2022-12-29T06:52:49;9.70;97.00
10030;DHT22;5055;52.054;8.524;2022-12-29T06:55:18;9.70;97.00
10030;DHT22;5055;52.054;8.524;2022-12-29T06:57:48;9.60;97.00
10030;DHT22;5055;52.054;8.524;2022-12-29T07:00:16;9.60;97.00
10030;DHT22;5055;52.054;8.524;2022-12-29T07:02:51;9.60;97.00
10030;DHT22;5055;52.054;8.524;2022-12-29T07:05:20;9.60;97.00
10030;DHT22;5055;52.054;8.524;2022-12-29T07:07:48;9.60;97.00
10030;DHT22;5055;52.054;8.524;2022-12-29T07:10:18;9.60;97.00
10030;DHT22;5055;52.054;8.524;2022-12-29T07:12:50;9.50;97.00
10030;DHT22;5055;52.054;8.524;2022-12-29T07:15:18;9.60;97.00
10030;DHT22;5055;52.054;8.524;2022-12-29T07:17:47;9.50;97.00
10030;DHT22;5055;52.054;8.524;2022-12-29T07:20:19;9.60;97.00
10030;DHT22;5055;52.054;8.524;2022-12-29T07:22:52;9.80;97.00
10030;DHT22;5055;52.054;8.524;2022-12-29T07:25:22;9.80;97.00
10030;DHT22;5055;52.054;8.524;2022-12-29T07:27:51;9.90;97.00
10030;DHT22;5055;52.054;8.524;2022-12-29T07:30:20;10.00;97.00
10030;DHT22;5055;52.054;8.524;2022-12-29T07:32:48;10.20;97.00
10030;DHT22;5055;52.054;8.524;2022-12-29T07:35:16;10.20;97.00
10030;DHT22;5055;52.054;8.524;2022-12-29T07:37:45;10.30;97.00
10030;DHT22;5055;52.054;8.524;2022-12-29T07:40:13;10.30;97.00
10030;DHT22;5055;52.054;8.524;2022-12-29T07:42:43;10.30;97.00
10030;DHT22;5055;52.054;8.524;2022-12-29T07:45:12;10.30;97.00
10030;DHT22;5055;52.054;8.524;2022-12-29T07:47:40;10.30;97.00
10030;DHT22;5055;52.054;8.524;2022-12-29T07:50:09;10.30;97.00
10030;DHT22;5055;52.054;8.524;2022-12-29T07:52:37;10.30;97.00
10030;DHT22;5055;52.054;8.524;2022-12-29T07:55:06;10.30;97.00
10030;DHT22;5055;52.054;8.524;2022-12-29T07:57:35;10.40;97.00
10030;DHT22;5055;52.054;8.524;2022-12-29T08:00:06;10.40;97.00
10030;DHT22;5055;52.054;8.524;2022-12-29T08:02:35;10.60;97.00
10030;DHT22;5055;52.054;8.524;2022-12-29T08:05:04;10.60;97.00
10030;DHT22;5055;52.054;8.524;2022-12-29T08:07:32;10.50;97.00
10030;DHT22;5055;52.054;8.524;2022-12-29T08:10:01;10.50;97.00
10030;DHT22;5055;52.054;8.524;2022-12-29T08:12:29;10.50;97.00
10030;DHT22;5055;52.054;8.524;2022-12-29T08:14:58;10.60;97.00
10030;DHT22;5055;52.054;8.524;2022-12-29T08:17:31;10.60;97.00
10030;DHT22;5055;52.054;8.524;2022-12-29T08:19:59;10.60;97.00
10030;DHT22;5055;52.054;8.524;2022-12-29T08:22:28;10.60;97.00
10030;DHT22;5055;52.054;8.524;2022-12-29T08:24:56;10.70;97.00
10030;DHT22;5055;52.054;8.524;2022-12-29T08:27:25;10.70;97.00
10030;DHT22;5055;52.054;8.524;2022-12-29T08:29:53;10.70;97.00
10030;DHT22;5055;52.054;8.524;2022-12-29T08:32:22;10.70;97.00
10030;DHT22;5055;52.054;8.524;2022-12-29T08:34:52;10.70;97.00
10030;DHT22;5055;52.054;8.524;2022-12-29T08:37:20;10.70;97.00
10030;DHT22;5055;52.054;8.524;2022-12-29T08:39:56;10.70;97.00
10030;DHT22;5055;52.054;8.524;2022-12-29T08:42:27;10.80;97.00
10030;DHT22;5055;52.054;8.524;2022-12-29T08:44:58;10.70;97.00
10030;DHT22;5055;52.054;8.524;2022-12-29T08:47:27;10.80;97.00
10030;DHT22;5055;52.054;8.524;2022-12-29T08:49:57;10.70;97.00
10030;DHT22;5055;52.054;8.524;2022-12-29T08:52:25;10.80;97.00
10030;DHT22;5055;52.054;8.524;2022-12-29T08:54:54;10.80;97.00
10030;DHT22;5055;52.054;8.524;2022-12-29T08:57:22;10.80;97.00
10030;DHT22;5055;52.054;8.524;2022-12-29T08:59:52;10.80;97.00
10030;DHT22;5055;52.054;8.524;2022-12-29T09:02:20;10.70;97.00
10030;DHT22;5055;52.054;8.524;2022-12-29T09:04:51;10.70;97.00
10030;DHT22;5055;52.054;8.524;2022-12-29T09:07:21;10.70;97.00
10030;DHT22;5055;52.054;8.524;2022-12-29T09:09:50;10.60;97.00
10030;DHT22;5055;52.054;8.524;2022-12-29T09:12:18;10.60;97.00
10030;DHT22;5055;52.054;8.524;2022-12-29T09:14:46;10.60;97.00
10030;DHT22;5055;52.054;8.524;2022-12-29T09:17:15;10.60;97.00
10030;DHT22;5055;52.054;8.524;2022-12-29T09:20:01;10.60;97.00
10030;DHT22;5055;52.054;8.524;2022-12-29T09:22:30;10.80;97.00
10030;DHT22;5055;52.054;8.524;2022-12-29T09:24:59;10.80;97.00
10030;DHT22;5055;52.054;8.524;2022-12-29T09:27:27;10.80;97.00
10030;DHT22;5055;52.054;8.524;2022-12-29T09:29:56;10.90;97.00
10030;DHT22;5055;52.054;8.524;2022-12-29T09:32:25;11.00;97.00
10030;DHT22;5055;52.054;8.524;2022-12-29T09:34:59;11.00;97.00
10030;DHT22;5055;52.054;8.524;2022-12-29T09:37:29;11.10;97.00
10030;DHT22;5055;52.054;8.524;2022-12-29T09:39:58;11.10;97.00
10030;DHT22;5055;52.054;8.524;2022-12-29T09:42:29;11.10;97.00
10030;DHT22;5055;52.054;8.524;2022-12-29T09:45:08;11.20;97.00
10030;DHT22;5055;52.054;8.524;2022-12-29T09:47:39;11.20;97.00
10030;DHT22;5055;52.054;8.524;2022-12-29T09:50:13;11.20;97.00
10030;DHT22;5055;52.054;8.524;2022-12-29T09:52:52;11.20;97.00
10030;DHT22;5055;52.054;8.524;2022-12-29T09:55:25;11.10;97.00
10030;DHT22;5055;52.054;8.524;2022-12-29T09:57:57;11.00;97.00
10030;DHT22;5055;52.054;8.524;2022-12-29T10:00:37;11.10;97.00
10030;DHT22;5055;52.054;8.524;2022-12-29T10:03:14;11.10;97.00
10030;DHT22;5055;52.054;8.524;2022-12-29T10:05:47;11.20;97.00
10030;DHT22;5055;52.054;8.524;2022-12-29T10:08:29;11.20;97.00
10030;DHT22;5055;52.054;8.524;2022-12-29T10:11:05;11.20;97.00
10030;DHT22;5055;52.054;8.524;2022-12-29T10:13:43;11.20;97.00
10030;DHT22;5055;52.054;8.524;2022-12-29T10:16:20;11.10;97.00
10030;DHT22;5055;52.054;8.524;2022-12-29T10:19:12;11.20;97.00
10030;DHT22;5055;52.054;8.524;2022-12-29T10:21:54;11.20;97.00
10030;DHT22;5055;52.054;8.524;2022-12-29T10:24:28;11.30;97.00
10030;DHT22;5055;52.054;8.524;2022-12-29T10:26:58;11.40;97.00
10030;DHT22;5055;52.054;8.524;2022-12-29T10:29:33;11.40;97.00
10030;DHT22;5055;52.054;8.524;2022-12-29T10:32:09;11.50;97.00
10030;DHT22;5055;52.054;8.524;2022-12-29T10:34:45;11.60;97.00
10030;DHT22;5055;52.054;8.524;2022-12-29T10:37:23;11.70;97.00
10030;DHT22;5055;52.054;8.524;2022-12-29T10:40:09;11.70;97.00
10030;DHT22;5055;52.054;8.524;2022-12-29T10:42:47;11.60;97.00
10030;DHT22;5055;52.054;8.524;2022-12-29T10:45:18;11.60;97.00
10030;DHT22;5055;52.054;8.524;2022-12-29T10:47:54;11.60;97.00
10030;DHT22;5055;52.054;8.524;2022-12-29T10:50:27;11.60;97.00
10030;DHT22;5055;52.054;8.524;2022-12-29T10:52:58;11.60;97.00
10030;DHT22;5055;52.054;8.524;2022-12-29T10:55:32;11.60;97.00
10030;DHT22;5055;52.054;8.524;2022-12-29T10:58:04;11.60;97.00
10030;DHT22;5055;52.054;8.524;2022-12-29T11:00:34;11.60;97.00
10030;DHT22;5055;52.054;8.524;2022-12-29T11:03:13;11.60;97.00
10030;DHT22;5055;52.054;8.524;2022-12-29T11:05:48;11.60;97.00
10030;DHT22;5055;52.054;8.524;2022-12-29T11:08:20;11.50;97.00
10030;DHT22;5055;52.054;8.524;2022-12-29T11:10:59;11.60;97.00
10030;DHT22;5055;52.054;8.524;2022-12-29T11:13:30;11.50;97.00
10030;DHT22;5055;52.054;8.524;2022-12-29T11:16:05;11.50;97.00
10030;DHT22;5055;52.054;8.524;2022-12-29T11:18:36;11.50;97.00
10030;DHT22;5055;52.054;8.524;2022-12-29T11:21:10;11.50;97.00
10030;DHT22;5055;52.054;8.524;2022-12-29T11:23:56;11.50;97.00
10030;DHT22;5055;52.054;8.524;2022-12-29T11:26:28;11.40;97.00
10030;DHT22;5055;52.054;8.524;2022-12-29T11:29:17;11.40;97.00
10030;DHT22;5055;52.054;8.524;2022-12-29T11:31:49;11.40;97.00
10030;DHT22;5055;52.054;8.524;2022-12-29T11:34:20;11.40;97.00
10030;DHT22;5055;52.054;8.524;2022-12-29T11:36:51;11.30;97.00
10030;DHT22;5055;52.054;8.524;2022-12-29T11:39:30;11.30;97.00
10030;DHT22;5055;52.054;8.524;2022-12-29T11:42:03;11.30;97.00
10030;DHT22;5055;52.054;8.524;2022-12-29T11:44:37;11.30;97.00
10030;DHT22;5055;52.054;8.524;2022-12-29T11:47:08;11.30;97.00
10030;DHT22;5055;52.054;8.524;2022-12-29T11:49:41;11.30;97.00
10030;DHT22;5055;52.054;8.524;2022-12-29T11:52:09;11.30;97.00
10030;DHT22;5055;52.054;8.524;2022-12-29T11:54:38;11.40;97.00
10030;DHT22;5055;52.054;8.524;2022-12-29T11:57:12;11.40;97.00
10030;DHT22;5055;52.054;8.524;2022-12-29T11:59:43;11.40;97.00
10030;DHT22;5055;52.054;8.524;2022-12-29T12:02:35;11.40;97.00
10030;DHT22;5055;52.054;8.524;2022-12-29T12:05:15;11.40;97.00
10030;DHT22;5055;52.054;8.524;2022-12-29T12:07:49;11.40;97.00
10030;DHT22;5055;52.054;8.524;2022-12-29T12:10:26;11.40;97.00
10030;DHT22;5055;52.054;8.524;2022-12-29T12:13:03;11.40;97.00
10030;DHT22;5055;52.054;8.524;2022-12-29T12:15:38;11.50;97.00
10030;DHT22;5055;52.054;8.524;2022-12-29T12:18:18;11.50;97.00
10030;DHT22;5055;52.054;8.524;2022-12-29T12:20:51;11.50;97.00
10030;DHT22;5055;52.054;8.524;2022-12-29T12:23:31;11.50;97.00
10030;DHT22;5055;52.054;8.524;2022-12-29T12:26:11;11.50;97.00
10030;DHT22;5055;52.054;8.524;2022-12-29T12:28:48;11.50;97.00
10030;DHT22;5055;52.054;8.524;2022-12-29T12:31:30;11.50;97.00
10030;DHT22;5055;52.054;8.524;2022-12-29T12:34:05;11.50;97.00
10030;DHT22;5055;52.054;8.524;2022-12-29T12:36:54;11.50;97.00
10030;DHT22;5055;52.054;8.524;2022-12-29T12:39:29;11.50;97.00
10030;DHT22;5055;52.054;8.524;2022-12-29T12:42:08;11.50;97.00
10030;DHT22;5055;52.054;8.524;2022-12-29T12:44:47;11.60;97.00
10030;DHT22;5055;52.054;8.524;2022-12-29T12:47:34;11.60;97.00
10030;DHT22;5055;52.054;8.524;2022-12-29T12:50:22;11.50;97.00
10030;DHT22;5055;52.054;8.524;2022-12-29T12:53:25;11.50;97.00
10030;DHT22;5055;52.054;8.524;2022-12-29T12:58:57;11.40;97.00
10030;DHT22;5055;52.054;8.524;2022-12-29T13:01:45;11.40;97.00
10030;DHT22;5055;52.054;8.524;2022-12-29T13:04:32;11.40;97.00
10030;DHT22;5055;52.054;8.524;2022-12-29T13:07:13;11.40;97.00
10030;DHT22;5055;52.054;8.524;2022-12-29T13:10:02;11.40;97.00
10030;DHT22;5055;52.054;8.524;2022-12-29T13:12:45;11.40;97.00
10030;DHT22;5055;52.054;8.524;2022-12-29T13:15:29;11.40;97.00
10030;DHT22;5055;52.054;8.524;2022-12-29T13:18:13;11.30;97.00
10030;DHT22;5055;52.054;8.524;2022-12-29T13:20:47;11.30;97.00
10030;DHT22;5055;52.054;8.524;2022-12-29T13:23:22;11.30;97.00
10030;DHT22;5055;52.054;8.524;2022-12-29T13:25:59;11.30;97.00
10030;DHT22;5055;52.054;8.524;2022-12-29T13:28:34;11.30;97.00
10030;DHT22;5055;52.054;8.524;2022-12-29T13:31:12;11.30;97.00
10030;DHT22;5055;52.054;8.524;2022-12-29T13:33:51;11.30;97.00
10030;DHT22;5055;52.054;8.524;2022-12-29T13:36:25;11.30;97.00
10030;DHT22;5055;52.054;8.524;2022-12-29T13:39:02;11.30;97.00
10030;DHT22;5055;52.054;8.524;2022-12-29T13:41:35;11.30;97.00
10030;DHT22;5055;52.054;8.524;2022-12-29T13:44:05;11.30;97.00
10030;DHT22;5055;52.054;8.524;2022-12-29T13:46:40;11.20;97.00
10030;DHT22;5055;52.054;8.524;2022-12-29T13:49:15;11.20;97.00
10030;DHT22;5055;52.054;8.524;2022-12-29T13:51:49;11.20;97.00
10030;DHT22;5055;52.054;8.524;2022-12-29T13:54:27;11.10;97.00
10030;DHT22;5055;52.054;8.524;2022-12-29T13:57:05;11.00;97.00
10030;DHT22;5055;52.054;8.524;2022-12-29T13:59:42;11.00;97.00
10030;DHT22;5055;52.054;8.524;2022-12-29T14:02:25;11.00;97.00
10030;DHT22;5055;52.054;8.524;2022-12-29T14:05:01;10.90;97.00
10030;DHT22;5055;52.054;8.524;2022-12-29T14:07:37;10.90;97.00
10030;DHT22;5055;52.054;8.524;2022-12-29T14:10:26;10.80;97.00
10030;DHT22;5055;52.054;8.524;2022-12-29T14:13:03;10.80;97.00
10030;DHT22;5055;52.054;8.524;2022-12-29T14:15:33;10.80;97.00
10030;DHT22;5055;52.054;8.524;2022-12-29T14:18:14;10.80;97.00
10030;DHT22;5055;52.054;8.524;2022-12-29T14:20:53;10.80;97.00
10030;DHT22;5055;52.054;8.524;2022-12-29T14:23:36;10.80;97.00
10030;DHT22;5055;52.054;8.524;2022-12-29T14:26:16;10.80;97.00
10030;DHT22;5055;52.054;8.524;2022-12-29T14:28:47;10.80;97.00
10030;DHT22;5055;52.054;8.524;2022-12-29T14:31:35;10.90;97.00
10030;DHT22;5055;52.054;8.524;2022-12-29T14:34:28;10.90;97.00
10030;DHT22;5055;52.054;8.524;2022-12-29T14:36:59;10.80;97.00
10030;DHT22;5055;52.054;8.524;2022-12-29T14:39:35;10.70;97.00
10030;DHT22;5055;52.054;8.524;2022-12-29T14:42:06;10.70;97.00
10030;DHT22;5055;52.054;8.524;2022-12-29T14:44:46;10.60;97.00
10030;DHT22;5055;52.054;8.524;2022-12-29T14:47:19;10.60;97.00
10030;DHT22;5055;52.054;8.524;2022-12-29T14:49:48;10.60;97.00
10030;DHT22;5055;52.054;8.524;2022-12-29T14:52:21;10.50;97.00
10030;DHT22;5055;52.054;8.524;2022-12-29T14:54:53;10.50;97.00
10030;DHT22;5055;52.054;8.524;2022-12-29T14:57:27;10.50;97.00
10030;DHT22;5055;52.054;8.524;2022-12-29T15:00:04;10.50;97.00
10030;DHT22;5055;52.054;8.524;2022-12-29T15:02:37;10.40;97.00
10030;DHT22;5055;52.054;8.524;2022-12-29T15:05:26;10.40;97.00
10030;DHT22;5055;52.054;8.524;2022-12-29T15:07:57;10.40;97.00
10030;DHT22;5055;52.054;8.524;2022-12-29T15:10:34;10.40;97.00
10030;DHT22;5055;52.054;8.524;2022-12-29T15:13:05;10.40;97.00
10030;DHT22;5055;52.054;8.524;2022-12-29T15:15:41;10.40;97.00
10030;DHT22;5055;52.054;8.524;2022-12-29T15:18:20;10.40;97.00
10030;DHT22;5055;52.054;8.524;2022-12-29T15:20:53;10.50;97.00
10030;DHT22;5055;52.054;8.524;2022-12-29T15:23:24;10.50;97.00
10030;DHT22;5055;52.054;8.524;2022-12-29T15:25:55;10.50;97.00
10030;DHT22;5055;52.054;8.524;2022-12-29T15:28:25;10.50;97.00
10030;DHT22;5055;52.054;8.524;2022-12-29T15:30:56;10.60;97.00
10030;DHT22;5055;52.054;8.524;2022-12-29T15:33:26;10.60;97.00
10030;DHT22;5055;52.054;8.524;2022-12-29T15:35:57;10.60;97.00
10030;DHT22;5055;52.054;8.524;2022-12-29T15:38:32;10.50;97.00
10030;DHT22;5055;52.054;8.524;2022-12-29T15:41:20;10.50;97.00
10030;DHT22;5055;52.054;8.524;2022-12-29T15:44:01;10.50;97.00
10030;DHT22;5055;52.054;8.524;2022-12-29T15:46:33;10.50;97.00
10030;DHT22;5055;52.054;8.524;2022-12-29T15:49:05;10.50;97.00
10030;DHT22;5055;52.054;8.524;2022-12-29T15:51:37;10.50;97.00
10030;DHT22;5055;52.054;8.524;2022-12-29T15:54:15;10.60;97.00
10030;DHT22;5055;52.054;8.524;2022-12-29T15:56:46;10.50;97.00
10030;DHT22;5055;52.054;8.524;2022-12-29T15:59:24;10.50;97.00
10030;DHT22;5055;52.054;8.524;2022-12-29T16:01:54;10.50;97.00
10030;DHT22;5055;52.054;8.524;2022-12-29T16:04:24;10.50;97.00
10030;DHT22;5055;52.054;8.524;2022-12-29T16:06:57;10.40;97.00
10030;DHT22;5055;52.054;8.524;2022-12-29T16:09:32;10.40;97.00
10030;DHT22;5055;52.054;8.524;2022-12-29T16:12:04;10.30;97.00
10030;DHT22;5055;52.054;8.524;2022-12-29T16:14:40;10.30;97.00
10030;DHT22;5055;52.054;8.524;2022-12-29T16:17:13;10.30;97.00
10030;DHT22;5055;52.054;8.524;2022-12-29T16:19:49;10.40;97.00
10030;DHT22;5055;52.054;8.524;2022-12-29T16:22:25;10.40;97.00
10030;DHT22;5055;52.054;8.524;2022-12-29T16:25:02;10.40;97.00
10030;DHT22;5055;52.054;8.524;2022-12-29T16:27:34;10.30;97.00
10030;DHT22;5055;52.054;8.524;2022-12-29T16:30:16;10.30;97.00